Time,TemperatureF,DewpointF,PressureIn,WindDirection,WindDirectionDegrees,WindSpeedMPH,WindSpeedGustMPH,Humidity,HourlyPrecipIn,Conditions,Clouds,dailyrainin,SolarRadiationWatts/m^2,SoftwareType,DateUTC
2013-06-29 00:01:00,71.2,70.3,29.56,South,182,0.0,0.0,97,0.00,RA,SCT,0.00,0.0,WeatherDisplay:10.37,2013-06-29 04:01:00,
2013-06-29 00:02:00,71.3,70.4,29.55,South,172,0.0,0.0,97,0.00,RA,SCT,0.00,0.0,WeatherDisplay:10.37,2013-06-29 04:02:00,
2013-06-29 00:07:00,71.3,70.1,29.56,South,187,0.0,0.0,96,0.00,RA,SCT,0.00,0.0,WeatherDisplay:10.37,2013-06-29 04:07:00,
2013-06-29 00:12:00,71.0,69.8,29.56,South,172,0.0,0.0,96,0.00,,SCT,0.00,0.0,WeatherDisplay:10.37,2013-06-29 04:12:00,
2013-06-29 00:17:00,71.0,70.1,29.56,South,188,0.0,0.0,97,0.00,,SCT,0.00,0.0,WeatherDisplay:10.37,2013-06-29 04:17:00,
2013-06-29 00:22:00,71.7,70.8,29.56,South,188,0.0,0.0,97,0.00,,SCT,0.00,0.0,WeatherDisplay:10.37,2013-06-29 04:22:00,
2013-06-29 00:27:00,72.0,71.1,29.56,South,174,0.0,0.0,97,0.00,,SCT,0.00,0.0,WeatherDisplay:10.37,2013-06-29 04:27:00,
2013-06-29 00:32:00,71.9,71.0,29.55,South,181,0.0,0.0,97,0.00,,SCT,0.00,0.0,WeatherDisplay:10.37,2013-06-29 04:32:00,
2013-06-29 00:37:00,71.6,70.7,29.55,South,176,0.0,0.0,97,0.00,,SCT,0.00,0.0,WeatherDisplay:10.37,2013-06-29 04:37:00,
2013-06-29 00:42:00,71.7,70.8,29.55,South,175,0.0,0.0,97,0.00,,SCT,0.00,0.0,WeatherDisplay:10.37,2013-06-29 04:42:00,
2013-06-29 00:47:00,71.5,70.3,29.55,SSE,168,0.0,0.0,96,0.00,,SCT,0.00,0.0,WeatherDisplay:10.37,2013-06-29 04:47:00,
2013-06-29 00:52:00,71.5,70.6,29.55,SSW,203,0.0,0.0,97,0.00,,SCT,0.00,0.0,WeatherDisplay:10.37,2013-06-29 04:52:00,
2013-06-29 00:57:00,71.5,70.6,29.55,SSW,210,0.0,0.0,97,0.00,,SCT,0.00,0.0,WeatherDisplay:10.37,2013-06-29 04:57:00,
2013-06-29 01:02:00,71.6,70.7,29.54,SW,226,0.0,0.0,97,0.01,RA,SCT,0.01,0.0,WeatherDisplay:10.37,2013-06-29 05:02:00,
2013-06-29 01:07:00,71.5,70.6,29.54,SSW,203,0.0,0.0,97,0.01,RA,SCT,0.01,0.0,WeatherDisplay:10.37,2013-06-29 05:07:00,
2013-06-29 01:12:00,71.3,70.4,29.54,South,184,0.0,0.0,97,0.01,,SCT,0.01,0.0,WeatherDisplay:10.37,2013-06-29 05:12:00,
2013-06-29 01:17:00,71.3,70.4,29.54,SSW,199,0.0,0.0,97,0.01,,SCT,0.01,0.0,WeatherDisplay:10.37,2013-06-29 05:17:00,
2013-06-29 01:22:00,71.5,70.6,29.54,South,186,0.0,0.0,97,0.01,,SCT,0.01,0.0,WeatherDisplay:10.37,2013-06-29 05:22:00,
2013-06-29 01:27:00,71.6,70.7,29.53,SSW,192,0.0,0.0,97,0.01,,SCT,0.01,0.0,WeatherDisplay:10.37,2013-06-29 05:27:00,
2013-06-29 01:32:00,71.7,70.8,29.53,SSW,198,0.0,0.0,97,0.01,,SCT,0.01,0.0,WeatherDisplay:10.37,2013-06-29 05:32:00,
2013-06-29 01:37:00,71.9,71.0,29.53,SW,214,0.0,0.0,97,0.01,,SCT,0.01,0.0,WeatherDisplay:10.37,2013-06-29 05:37:00,
2013-06-29 01:42:00,71.7,70.8,29.52,SSW,193,0.0,0.0,97,0.01,,SCT,0.01,0.0,WeatherDisplay:10.37,2013-06-29 05:42:00,
2013-06-29 01:47:00,71.8,70.9,29.52,SSW,197,0.0,0.0,97,0.01,,SCT,0.01,0.0,WeatherDisplay:10.37,2013-06-29 05:47:00,
2013-06-29 01:52:00,71.6,70.7,29.52,SSW,210,0.0,0.0,97,0.01,,SCT,0.01,0.0,WeatherDisplay:10.37,2013-06-29 05:52:00,
2013-06-29 01:57:00,71.6,70.7,29.52,SW,216,0.0,0.0,97,0.01,,SCT,0.01,0.0,WeatherDisplay:10.37,2013-06-29 05:57:00,
2013-06-29 02:02:00,71.7,70.8,29.51,South,173,0.0,0.0,97,0.00,,SCT,0.01,0.0,WeatherDisplay:10.37,2013-06-29 06:02:00,
2013-06-29 02:07:00,71.7,70.8,29.51,South,181,0.0,0.0,97,0.00,,SCT,0.01,0.0,WeatherDisplay:10.37,2013-06-29 06:07:00,
2013-06-29 02:12:00,71.6,70.7,29.51,SSW,194,0.0,0.0,97,0.00,,SCT,0.01,0.0,WeatherDisplay:10.37,2013-06-29 06:12:00,
2013-06-29 02:17:00,71.5,70.6,29.52,SSW,208,0.0,0.0,97,0.00,,SCT,0.01,0.0,WeatherDisplay:10.37,2013-06-29 06:17:00,
2013-06-29 02:22:00,71.5,70.6,29.52,SW,215,0.0,0.0,97,0.00,,SCT,0.01,0.0,WeatherDisplay:10.37,2013-06-29 06:22:00,
2013-06-29 02:27:00,71.4,70.5,29.52,WSW,238,0.0,0.0,97,0.00,,SCT,0.01,0.0,WeatherDisplay:10.37,2013-06-29 06:27:00,
2013-06-29 02:32:00,71.5,70.6,29.52,SW,236,0.0,0.0,97,0.00,,SCT,0.01,0.0,WeatherDisplay:10.37,2013-06-29 06:32:00,
2013-06-29 02:37:00,71.5,70.6,29.52,SW,234,0.0,0.0,97,0.00,,SCT,0.01,0.0,WeatherDisplay:10.37,2013-06-29 06:37:00,
2013-06-29 02:42:00,71.5,70.6,29.52,SW,223,0.0,0.0,97,0.00,,SCT,0.01,0.0,WeatherDisplay:10.37,2013-06-29 06:42:00,
2013-06-29 02:47:00,71.5,70.6,29.53,SW,225,0.0,0.0,97,0.00,,SCT,0.01,0.0,WeatherDisplay:10.37,2013-06-29 06:47:00,
2013-06-29 02:52:00,71.4,70.5,29.52,NW,320,0.0,0.0,97,0.00,,SCT,0.01,0.0,WeatherDisplay:10.37,2013-06-29 06:52:00,
2013-06-29 02:57:00,71.4,70.5,29.52,SW,222,0.1,1.2,97,0.00,,SCT,0.01,0.0,WeatherDisplay:10.37,2013-06-29 06:57:00,
2013-06-29 03:02:00,71.3,70.4,29.52,WSW,245,0.1,1.2,97,0.00,,SCT,0.01,0.0,WeatherDisplay:10.37,2013-06-29 07:02:00,
2013-06-29 03:07:00,71.2,70.3,29.53,SW,220,0.0,0.0,97,0.00,,SCT,0.01,0.0,WeatherDisplay:10.37,2013-06-29 07:07:00,
2013-06-29 03:12:00,71.2,70.3,29.53,SW,215,0.0,0.0,97,0.00,,SCT,0.01,0.0,WeatherDisplay:10.37,2013-06-29 07:12:00,
2013-06-29 03:17:00,71.3,70.4,29.53,SW,224,0.0,0.0,97,0.00,,SCT,0.01,0.0,WeatherDisplay:10.37,2013-06-29 07:17:00,
2013-06-29 03:22:00,71.4,70.5,29.53,SW,220,0.0,0.0,97,0.00,,SCT,0.01,0.0,WeatherDisplay:10.37,2013-06-29 07:22:00,
2013-06-29 03:27:00,71.5,70.6,29.53,SW,235,0.0,0.0,97,0.00,,SCT,0.01,0.0,WeatherDisplay:10.37,2013-06-29 07:27:00,
2013-06-29 03:32:00,71.2,70.3,29.53,WSW,243,0.0,0.0,97,0.00,,SCT,0.01,0.0,WeatherDisplay:10.37,2013-06-29 07:32:00,
2013-06-29 03:37:00,71.5,70.6,29.52,WSW,243,0.0,0.0,97,0.00,,SCT,0.01,0.0,WeatherDisplay:10.37,2013-06-29 07:37:00,
2013-06-29 03:42:00,71.7,70.8,29.52,North,0,0.0,0.0,97,0.00,,SCT,0.01,0.0,WeatherDisplay:10.37,2013-06-29 07:42:00,
2013-06-29 03:47:00,71.6,70.7,29.52,North,0,0.0,0.0,97,0.00,,SCT,0.01,0.0,WeatherDisplay:10.37,2013-06-29 07:47:00,
2013-06-29 03:52:00,71.5,70.6,29.52,North,0,0.0,0.0,97,0.00,,SCT,0.01,0.0,WeatherDisplay:10.37,2013-06-29 07:52:00,
2013-06-29 03:57:00,71.6,70.7,29.53,SSW,212,0.4,1.2,97,0.00,,SCT,0.01,0.0,WeatherDisplay:10.37,2013-06-29 07:57:00,
2013-06-29 04:02:00,71.7,70.8,29.53,SSW,212,1.0,1.2,97,0.00,,SCT,0.01,0.0,WeatherDisplay:10.37,2013-06-29 08:02:00,
2013-06-29 04:07:00,71.8,70.9,29.52,SW,224,0.0,1.2,97,0.00,,SCT,0.01,0.0,WeatherDisplay:10.37,2013-06-29 08:07:00,
2013-06-29 04:12:00,71.7,70.8,29.53,SSW,208,0.0,0.0,97,0.00,,SCT,0.01,0.0,WeatherDisplay:10.37,2013-06-29 08:12:00,
2013-06-29 04:18:00,72.1,71.2,29.53,SW,225,0.0,0.0,97,0.00,,SCT,0.01,0.0,WeatherDisplay:10.37,2013-06-29 08:18:00,
2013-06-29 04:23:00,72.5,72.5,29.53,SSW,210,0.0,0.0,100,0.00,,SCT,0.01,0.0,WeatherDisplay:10.37,2013-06-29 08:23:00,
2013-06-29 04:28:00,72.6,72.6,29.53,WSW,238,0.0,0.0,100,0.00,,SCT,0.01,0.0,WeatherDisplay:10.37,2013-06-29 08:28:00,
2013-06-29 04:33:00,72.7,72.7,29.53,SW,234,0.1,1.2,100,0.00,,SCT,0.01,0.0,WeatherDisplay:10.37,2013-06-29 08:33:00,
2013-06-29 04:38:00,72.6,72.6,29.54,West,274,0.3,0.0,100,0.00,,SCT,0.01,0.0,WeatherDisplay:10.37,2013-06-29 08:38:00,
2013-06-29 04:43:00,72.6,71.7,29.54,SW,234,0.0,1.2,97,0.00,,SCT,0.01,0.0,WeatherDisplay:10.37,2013-06-29 08:43:00,
2013-06-29 04:48:00,72.6,71.7,29.55,SSW,213,0.0,0.0,97,0.00,,SCT,0.01,0.0,WeatherDisplay:10.37,2013-06-29 08:48:00,
2013-06-29 04:53:00,72.7,71.8,29.55,SW,222,0.0,0.0,97,0.00,,SCT,0.01,0.0,WeatherDisplay:10.37,2013-06-29 08:53:00,
2013-06-29 04:58:00,72.7,71.8,29.55,SW,220,0.0,0.0,97,0.00,,SCT,0.01,0.0,WeatherDisplay:10.37,2013-06-29 08:58:00,
2013-06-29 05:03:00,72.8,71.9,29.55,SSW,212,0.0,0.0,97,0.00,,SCT,0.01,0.0,WeatherDisplay:10.37,2013-06-29 09:03:00,
2013-06-29 05:08:00,72.8,71.9,29.55,SW,223,0.0,0.0,97,0.00,,SCT,0.01,0.0,WeatherDisplay:10.37,2013-06-29 09:08:00,
2013-06-29 05:13:00,72.8,71.9,29.55,SW,216,0.0,0.0,97,0.00,,SCT,0.01,0.0,WeatherDisplay:10.37,2013-06-29 09:13:00,
2013-06-29 05:18:00,72.9,72.0,29.56,SW,226,0.0,0.0,97,0.00,,SCT,0.01,0.0,WeatherDisplay:10.37,2013-06-29 09:18:00,
2013-06-29 05:23:00,73.0,72.1,29.56,SW,214,0.0,0.0,97,0.00,,SCT,0.01,0.0,WeatherDisplay:10.37,2013-06-29 09:23:00,
2013-06-29 05:28:00,72.9,72.0,29.56,SW,216,0.0,0.0,97,0.00,,SCT,0.01,0.0,WeatherDisplay:10.37,2013-06-29 09:28:00,
2013-06-29 05:33:00,73.0,72.1,29.56,SW,233,0.0,0.0,97,0.00,,SCT,0.01,0.0,WeatherDisplay:10.37,2013-06-29 09:33:00,
2013-06-29 05:38:00,73.0,72.1,29.56,WSW,238,0.0,0.0,97,0.00,,SCT,0.01,0.0,WeatherDisplay:10.37,2013-06-29 09:38:00,
2013-06-29 05:43:00,72.9,71.7,29.56,NW,322,0.1,1.2,96,0.00,,SCT,0.01,0.0,WeatherDisplay:10.37,2013-06-29 09:43:00,
2013-06-29 05:48:00,72.9,71.7,29.55,WSW,237,0.2,1.2,96,0.00,,SCT,0.01,0.0,WeatherDisplay:10.37,2013-06-29 09:48:00,
2013-06-29 05:53:00,73.0,71.8,29.56,West,280,0.1,1.2,96,0.00,,SCT,0.01,0.0,WeatherDisplay:10.37,2013-06-29 09:53:00,
2013-06-29 05:58:00,73.0,71.8,29.55,West,280,0.2,1.2,96,0.00,BKN,SCT,0.01,5.0,WeatherDisplay:10.37,2013-06-29 09:58:00,
2013-06-29 06:03:00,72.9,71.7,29.56,West,280,0.2,1.2,96,0.00,BKN,SCT,0.01,5.0,WeatherDisplay:10.37,2013-06-29 10:03:00,
2013-06-29 06:08:00,73.4,72.5,29.56,SE,138,0.0,0.0,97,0.00,,SCT,0.01,0.0,WeatherDisplay:10.37,2013-06-29 10:08:00,
2013-06-29 06:13:00,73.5,72.3,29.56,North,8,0.0,0.0,96,0.00,BKN,SCT,0.01,9.0,WeatherDisplay:10.37,2013-06-29 10:13:00,
2013-06-29 06:18:00,73.4,72.2,29.57,SSE,151,0.0,0.0,96,0.00,,SCT,0.01,0.0,WeatherDisplay:10.37,2013-06-29 10:18:00,
2013-06-29 06:23:00,73.7,72.8,29.57,SSE,160,0.0,0.0,97,0.00,,SCT,0.01,5.0,WeatherDisplay:10.37,2013-06-29 10:23:00,
2013-06-29 06:28:00,73.5,72.3,29.57,South,182,0.0,1.2,96,0.00,,SCT,0.01,5.0,WeatherDisplay:10.37,2013-06-29 10:28:00,
2013-06-29 06:33:00,73.7,72.5,29.57,SE,145,0.0,0.0,96,0.00,,SCT,0.01,5.0,WeatherDisplay:10.37,2013-06-29 10:33:00,
2013-06-29 06:38:00,73.9,72.7,29.56,South,181,0.0,0.0,96,0.00,,SCT,0.01,7.0,WeatherDisplay:10.37,2013-06-29 10:38:00,
2013-06-29 06:43:00,73.7,72.5,29.56,South,187,0.0,0.0,96,0.00,BKN,SCT,0.01,26.0,WeatherDisplay:10.37,2013-06-29 10:43:00,
2013-06-29 06:48:00,73.6,72.4,29.56,South,177,0.0,0.0,96,0.00,BKN,SCT,0.01,49.0,WeatherDisplay:10.37,2013-06-29 10:48:00,
2013-06-29 06:53:00,73.7,72.5,29.56,SW,217,0.0,0.0,96,0.00,BKN,SCT,0.01,60.0,WeatherDisplay:10.37,2013-06-29 10:53:00,
2013-06-29 06:58:00,73.8,72.6,29.56,SSW,212,0.0,0.0,96,0.00,BKN,SCT,0.01,88.0,WeatherDisplay:10.37,2013-06-29 10:58:00,
2013-06-29 07:03:00,73.9,72.7,29.57,SW,214,0.0,0.0,96,0.00,BKN,SCT,0.01,72.0,WeatherDisplay:10.37,2013-06-29 11:03:00,
2013-06-29 07:08:00,74.0,72.8,29.57,SSW,210,0.0,0.0,96,0.00,BKN,SCT,0.01,83.0,WeatherDisplay:10.37,2013-06-29 11:08:00,
2013-06-29 07:13:00,74.0,72.8,29.57,SW,226,0.0,1.2,96,0.00,BKN,SCT,0.01,63.0,WeatherDisplay:10.37,2013-06-29 11:13:00,
2013-06-29 07:18:00,74.2,73.0,29.57,SW,226,0.0,0.0,96,0.00,BKN,SCT,0.01,83.0,WeatherDisplay:10.37,2013-06-29 11:18:00,
2013-06-29 07:23:00,74.2,72.7,29.57,SW,224,0.0,1.0,95,0.00,BKN,SCT,0.01,142.0,WeatherDisplay:10.37,2013-06-29 11:23:00,
2013-06-29 07:28:00,74.3,72.8,29.57,SW,225,0.0,0.0,95,0.00,BKN,SCT,0.01,47.0,WeatherDisplay:10.37,2013-06-29 11:28:00,
2013-06-29 07:33:00,74.3,72.8,29.57,SW,228,0.1,1.0,95,0.00,BKN,SCT,0.01,91.0,WeatherDisplay:10.37,2013-06-29 11:33:00,
2013-06-29 07:38:00,74.7,73.2,29.57,SW,229,0.0,0.0,95,0.00,BKN,SCT,0.01,123.0,WeatherDisplay:10.37,2013-06-29 11:38:00,
2013-06-29 07:43:00,74.7,72.9,29.57,SW,229,0.0,0.0,94,0.00,BKN,SCT,0.01,174.0,WeatherDisplay:10.37,2013-06-29 11:43:00,
2013-06-29 07:48:00,75.1,73.3,29.57,SW,226,0.0,0.0,94,0.00,SCT,,0.01,329.0,WeatherDisplay:10.37,2013-06-29 11:48:00,
2013-06-29 07:53:00,75.3,73.5,29.58,SW,226,0.0,0.0,94,0.00,SCT,,0.01,144.0,WeatherDisplay:10.37,2013-06-29 11:53:00,
2013-06-29 07:58:00,75.4,73.2,29.58,SW,232,0.0,0.0,93,0.00,BKN,SCT,0.01,113.0,WeatherDisplay:10.37,2013-06-29 11:58:00,
2013-06-29 08:03:00,75.4,73.2,29.59,SW,219,0.6,1.2,93,0.00,BKN,SCT,0.01,60.0,WeatherDisplay:10.37,2013-06-29 12:03:00,
2013-06-29 08:08:00,75.2,73.0,29.59,SW,228,0.1,1.2,93,0.00,BKN,SCT,0.01,56.0,WeatherDisplay:10.37,2013-06-29 12:08:00,
2013-06-29 08:13:00,75.0,72.8,29.59,SW,220,0.0,0.0,93,0.00,BKN,SCT,0.01,69.0,WeatherDisplay:10.37,2013-06-29 12:13:00,
2013-06-29 08:18:00,75.0,73.2,29.59,SW,224,0.0,0.0,94,0.00,BKN,SCT,0.01,44.0,WeatherDisplay:10.37,2013-06-29 12:18:00,
2013-06-29 08:23:00,74.9,72.7,29.59,SW,224,0.0,0.0,93,0.00,BKN,SCT,0.01,121.0,WeatherDisplay:10.37,2013-06-29 12:23:00,
2013-06-29 08:28:00,74.9,73.1,29.59,SW,226,0.0,0.0,94,0.00,BKN,SCT,0.01,79.0,WeatherDisplay:10.37,2013-06-29 12:28:00,
2013-06-29 08:33:00,74.9,72.7,29.59,SSW,210,0.0,0.0,93,0.00,BKN,SCT,0.01,62.0,WeatherDisplay:10.37,2013-06-29 12:33:00,
2013-06-29 08:38:00,74.8,72.6,29.60,SW,224,0.0,0.0,93,0.00,BKN,SCT,0.01,69.0,WeatherDisplay:10.37,2013-06-29 12:38:00,
2013-06-29 08:43:00,74.9,72.7,29.60,SW,220,0.0,0.0,93,0.00,BKN,SCT,0.01,90.0,WeatherDisplay:10.37,2013-06-29 12:43:00,
2013-06-29 08:48:00,74.9,72.7,29.60,WSW,258,0.0,0.0,93,0.00,BKN,SCT,0.01,93.0,WeatherDisplay:10.37,2013-06-29 12:48:00,
2013-06-29 08:53:00,74.8,72.3,29.60,SW,227,0.0,0.0,92,0.00,BKN,SCT,0.01,33.0,WeatherDisplay:10.37,2013-06-29 12:53:00,
2013-06-29 08:58:00,74.8,72.3,29.60,SSW,212,0.0,0.0,92,0.00,BKN,SCT,0.01,54.0,WeatherDisplay:10.37,2013-06-29 12:58:00,
2013-06-29 09:03:00,74.9,72.7,29.60,SW,226,0.0,0.0,93,0.00,BKN,SCT,0.01,183.0,WeatherDisplay:10.37,2013-06-29 13:03:00,
2013-06-29 09:08:00,75.4,73.2,29.60,SW,215,0.0,0.0,93,0.00,BKN,SCT,0.01,309.0,WeatherDisplay:10.37,2013-06-29 13:08:00,
2013-06-29 09:13:00,76.1,73.9,29.60,SW,228,0.0,0.0,93,0.00,BKN,SCT,0.01,374.0,WeatherDisplay:10.37,2013-06-29 13:13:00,
2013-06-29 09:18:00,76.2,73.1,29.60,SW,225,0.0,0.0,90,0.00,BKN,SCT,0.01,190.0,WeatherDisplay:10.37,2013-06-29 13:18:00,
2013-06-29 09:23:00,76.4,73.6,29.60,SSW,208,0.0,0.0,91,0.00,BKN,SCT,0.01,308.0,WeatherDisplay:10.37,2013-06-29 13:23:00,
2013-06-29 09:28:00,76.5,73.7,29.61,SW,224,0.0,0.0,91,0.00,BKN,SCT,0.01,200.0,WeatherDisplay:10.37,2013-06-29 13:28:00,
2013-06-29 09:33:00,76.4,73.2,29.61,SW,228,0.0,0.0,90,0.00,BKN,SCT,0.01,244.0,WeatherDisplay:10.37,2013-06-29 13:33:00,
2013-06-29 09:38:00,76.6,73.8,29.61,SSW,202,0.0,0.0,91,0.00,BKN,SCT,0.01,445.0,WeatherDisplay:10.37,2013-06-29 13:38:00,
2013-06-29 09:43:00,76.7,72.5,29.60,SW,220,0.0,0.0,87,0.00,BKN,SCT,0.01,353.0,WeatherDisplay:10.37,2013-06-29 13:43:00,
2013-06-29 09:48:00,76.6,72.4,29.60,SW,219,0.0,0.0,87,0.00,BKN,SCT,0.01,267.0,WeatherDisplay:10.37,2013-06-29 13:48:00,
2013-06-29 09:53:00,77.0,73.5,29.60,SSW,210,0.0,0.0,89,0.00,BKN,SCT,0.01,309.0,WeatherDisplay:10.37,2013-06-29 13:53:00,
2013-06-29 09:58:00,77.4,72.5,29.61,SSW,211,0.0,0.0,85,0.00,BKN,SCT,0.01,587.0,WeatherDisplay:10.37,2013-06-29 13:58:00,
2013-06-29 10:03:00,77.5,73.0,29.60,SW,218,0.0,0.0,86,0.00,SCT,,0.01,622.0,WeatherDisplay:10.37,2013-06-29 14:03:00,
2013-06-29 10:08:00,78.3,73.1,29.60,SW,226,0.0,0.0,84,0.00,FEW,SCT,0.01,661.0,WeatherDisplay:10.37,2013-06-29 14:08:00,
2013-06-29 10:13:00,78.4,72.8,29.60,SSW,209,0.0,0.0,83,0.00,FEW,SCT,0.01,257.0,WeatherDisplay:10.37,2013-06-29 14:13:00,
2013-06-29 10:18:00,78.1,72.9,29.60,SW,217,0.0,0.0,84,0.00,SCT,,0.01,466.0,WeatherDisplay:10.37,2013-06-29 14:18:00,
2013-06-29 10:23:00,78.5,72.9,29.60,SW,227,0.0,0.0,83,0.00,SCT,,0.01,517.0,WeatherDisplay:10.37,2013-06-29 14:23:00,
2013-06-29 10:28:00,78.0,72.1,29.61,SW,224,0.0,0.0,82,0.00,BKN,SCT,0.01,79.0,WeatherDisplay:10.37,2013-06-29 14:28:00,
2013-06-29 10:33:00,77.5,72.3,29.61,SW,227,0.0,1.2,84,0.00,BKN,SCT,0.01,352.0,WeatherDisplay:10.37,2013-06-29 14:33:00,
2013-06-29 10:38:00,77.5,72.3,29.61,SW,228,0.1,1.2,84,0.00,BKN,SCT,0.01,265.0,WeatherDisplay:10.37,2013-06-29 14:38:00,
2013-06-29 10:43:00,77.6,72.4,29.61,SW,215,0.0,1.2,84,0.00,BKN,SCT,0.01,396.0,WeatherDisplay:10.37,2013-06-29 14:43:00,
2013-06-29 10:48:00,78.0,72.8,29.62,SW,232,0.0,0.0,84,0.00,BKN,SCT,0.01,795.0,WeatherDisplay:10.37,2013-06-29 14:48:00,
2013-06-29 10:53:00,78.6,73.0,29.62,SW,222,0.1,1.2,83,0.00,SCT,,0.01,772.0,WeatherDisplay:10.37,2013-06-29 14:53:00,
2013-06-29 10:58:00,79.2,73.6,29.61,SW,223,0.2,1.0,83,0.00,SCT,,0.01,788.0,WeatherDisplay:10.37,2013-06-29 14:58:00,
2013-06-29 11:03:00,78.9,72.9,29.62,SW,230,0.0,0.0,82,0.00,SCT,,0.01,793.0,WeatherDisplay:10.37,2013-06-29 15:03:00,
2013-06-29 11:08:00,79.1,72.0,29.62,SW,227,0.0,1.2,79,0.00,FEW,SCT,0.01,814.0,WeatherDisplay:10.37,2013-06-29 15:08:00,
2013-06-29 11:13:00,79.3,73.0,29.61,SW,220,0.0,0.0,81,0.00,FEW,SCT,0.01,833.0,WeatherDisplay:10.37,2013-06-29 15:13:00,
2013-06-29 11:18:00,79.6,72.9,29.61,SW,216,0.0,0.0,80,0.00,FEW,SCT,0.01,831.0,WeatherDisplay:10.37,2013-06-29 15:18:00,
2013-06-29 11:23:00,79.4,71.9,29.61,SW,222,0.0,1.2,78,0.00,FEW,SCT,0.01,835.0,WeatherDisplay:10.37,2013-06-29 15:23:00,
2013-06-29 11:28:00,80.2,72.7,29.61,SW,227,0.1,1.2,78,0.00,FEW,SCT,0.01,851.0,WeatherDisplay:10.37,2013-06-29 15:28:00,
2013-06-29 11:33:00,80.2,73.5,29.61,SW,235,0.4,1.2,80,0.00,FEW,SCT,0.01,861.0,WeatherDisplay:10.37,2013-06-29 15:33:00,
2013-06-29 11:38:00,79.8,73.4,29.61,SW,220,0.1,1.2,81,0.00,FEW,SCT,0.01,865.0,WeatherDisplay:10.37,2013-06-29 15:38:00,
2013-06-29 11:43:00,79.8,73.4,29.61,WSW,247,0.5,1.2,81,0.00,FEW,SCT,0.01,874.0,WeatherDisplay:10.37,2013-06-29 15:43:00,
2013-06-29 11:48:00,80.3,72.0,29.61,SW,227,0.4,1.2,76,0.00,FEW,SCT,0.01,867.0,WeatherDisplay:10.37,2013-06-29 15:48:00,
2013-06-29 11:53:00,80.9,74.5,29.61,WNW,297,0.0,1.2,81,0.00,FEW,SCT,0.01,881.0,WeatherDisplay:10.37,2013-06-29 15:53:00,
2013-06-29 11:58:00,80.1,71.5,29.61,SW,232,0.7,1.2,75,0.00,FEW,SCT,0.01,879.0,WeatherDisplay:10.37,2013-06-29 15:58:00,
2013-06-29 12:03:00,80.5,71.8,29.61,SW,227,0.3,1.2,75,0.00,FEW,SCT,0.01,882.0,WeatherDisplay:10.37,2013-06-29 16:03:00,
2013-06-29 12:08:00,80.6,71.9,29.61,SW,231,0.6,1.2,75,0.00,FEW,SCT,0.01,889.0,WeatherDisplay:10.37,2013-06-29 16:08:00,
2013-06-29 12:13:00,80.6,73.1,29.61,SW,216,0.1,1.2,78,0.00,FEW,SCT,0.01,898.0,WeatherDisplay:10.37,2013-06-29 16:13:00,
2013-06-29 12:18:00,80.2,72.3,29.61,SW,219,0.3,2.3,77,0.00,FEW,SCT,0.01,905.0,WeatherDisplay:10.37,2013-06-29 16:18:00,
2013-06-29 12:23:00,80.9,72.6,29.61,SW,225,2.8,3.5,76,0.00,FEW,SCT,0.01,907.0,WeatherDisplay:10.37,2013-06-29 16:23:00,
2013-06-29 12:28:00,80.7,71.6,29.60,NNE,29,2.6,4.6,74,0.00,FEW,SCT,0.01,909.0,WeatherDisplay:10.37,2013-06-29 16:28:00,
2013-06-29 12:33:00,80.8,70.9,29.61,West,268,3.2,4.0,72,0.00,FEW,SCT,0.01,918.0,WeatherDisplay:10.37,2013-06-29 16:33:00,
2013-06-29 12:38:00,80.7,70.0,29.61,SW,235,0.8,2.3,70,0.00,FEW,SCT,0.01,921.0,WeatherDisplay:10.37,2013-06-29 16:38:00,
2013-06-29 12:43:00,80.7,68.7,29.61,NNW,331,1.7,3.5,67,0.00,FEW,SCT,0.01,923.0,WeatherDisplay:10.37,2013-06-29 16:43:00,
2013-06-29 12:48:00,81.4,70.7,29.61,SW,228,5.9,9.2,70,0.00,FEW,SCT,0.01,928.0,WeatherDisplay:10.37,2013-06-29 16:48:00,
2013-06-29 12:53:00,82.3,71.1,29.61,SSW,212,0.5,1.2,69,0.00,FEW,SCT,0.01,928.0,WeatherDisplay:10.37,2013-06-29 16:53:00,
2013-06-29 12:58:00,82.5,70.0,29.61,SW,234,1.2,3.5,66,0.00,FEW,SCT,0.01,926.0,WeatherDisplay:10.37,2013-06-29 16:58:00,
2013-06-29 13:03:00,81.8,71.1,29.61,SW,215,6.0,6.0,70,0.00,FEW,SCT,0.01,923.0,WeatherDisplay:10.37,2013-06-29 17:03:00,
2013-06-29 13:08:00,81.9,70.3,29.61,South,178,2.8,3.5,68,0.00,FEW,SCT,0.01,928.0,WeatherDisplay:10.37,2013-06-29 17:08:00,
2013-06-29 13:13:00,81.5,69.9,29.61,SSW,212,3.8,4.6,68,0.00,FEW,SCT,0.01,932.0,WeatherDisplay:10.37,2013-06-29 17:13:00,
2013-06-29 13:18:00,81.8,70.2,29.61,SSW,212,0.1,3.5,68,0.00,FEW,SCT,0.01,928.0,WeatherDisplay:10.37,2013-06-29 17:18:00,
2013-06-29 13:24:00,82.3,68.4,29.61,SSW,212,0.0,0.0,63,0.00,FEW,SCT,0.01,939.0,WeatherDisplay:10.37,2013-06-29 17:24:00,
2013-06-29 13:29:00,82.3,69.8,29.62,SSW,197,2.5,3.5,66,0.00,FEW,SCT,0.01,956.0,WeatherDisplay:10.37,2013-06-29 17:29:00,
2013-06-29 13:34:00,83.3,73.3,29.62,South,170,7.0,10.4,72,0.00,FEW,SCT,0.01,951.0,WeatherDisplay:10.37,2013-06-29 17:34:00,
2013-06-29 13:39:00,82.5,71.3,29.62,South,181,3.8,9.2,69,0.00,FEW,SCT,0.01,993.0,WeatherDisplay:10.37,2013-06-29 17:39:00,
2013-06-29 13:44:00,81.7,72.2,29.62,SSW,203,7.6,10.4,73,0.00,SCT,,0.01,244.0,WeatherDisplay:10.37,2013-06-29 17:44:00,
2013-06-29 13:49:00,81.9,71.2,29.62,South,191,4.9,9.2,70,0.00,BKN,SCT,0.01,149.0,WeatherDisplay:10.37,2013-06-29 17:49:00,
2013-06-29 13:54:00,81.2,70.9,29.62,South,183,2.4,4.6,71,0.00,BKN,SCT,0.01,944.0,WeatherDisplay:10.37,2013-06-29 17:54:00,
2013-06-29 13:59:00,82.1,70.9,29.62,SSW,199,3.6,4.6,69,0.00,BKN,SCT,0.01,953.0,WeatherDisplay:10.37,2013-06-29 17:59:00,
2013-06-29 14:04:00,82.5,70.0,29.62,SW,216,3.9,5.0,66,0.00,SCT,,0.01,900.0,WeatherDisplay:10.37,2013-06-29 18:04:00,
2013-06-29 14:09:00,82.4,71.6,29.62,SE,133,4.6,6.9,70,0.00,FEW,SCT,0.01,895.0,WeatherDisplay:10.37,2013-06-29 18:09:00,
2013-06-29 14:14:00,82.8,71.2,29.62,SE,132,6.2,9.2,68,0.00,FEW,SCT,0.01,886.0,WeatherDisplay:10.37,2013-06-29 18:14:00,
2013-06-29 14:19:00,82.7,71.1,29.62,SSW,196,8.0,10.4,68,0.00,FEW,SCT,0.01,888.0,WeatherDisplay:10.37,2013-06-29 18:19:00,
2013-06-29 14:24:00,82.9,71.3,29.62,SSW,212,6.6,7.0,68,0.00,FEW,SCT,0.01,881.0,WeatherDisplay:10.37,2013-06-29 18:24:00,
2013-06-29 14:29:00,83.3,72.5,29.62,SSW,212,3.5,4.6,70,0.00,FEW,SCT,0.01,875.0,WeatherDisplay:10.37,2013-06-29 18:29:00,
2013-06-29 14:34:00,83.3,70.8,29.62,South,181,5.8,8.1,66,0.00,FEW,SCT,0.01,870.0,WeatherDisplay:10.37,2013-06-29 18:34:00,
2013-06-29 14:39:00,83.9,73.9,29.62,SSW,198,6.8,10.4,72,0.00,FEW,SCT,0.01,867.0,WeatherDisplay:10.37,2013-06-29 18:39:00,
2013-06-29 14:44:00,83.8,70.8,29.62,SSW,209,6.7,9.2,65,0.00,FEW,SCT,0.01,865.0,WeatherDisplay:10.37,2013-06-29 18:44:00,
2013-06-29 14:49:00,83.5,71.4,29.62,SSW,205,5.8,6.9,67,0.00,FEW,SCT,0.01,870.0,WeatherDisplay:10.37,2013-06-29 18:49:00,
2013-06-29 14:54:00,83.6,71.5,29.61,SSW,204,4.0,4.6,67,0.00,FEW,SCT,0.01,954.0,WeatherDisplay:10.37,2013-06-29 18:54:00,
2013-06-29 14:59:00,82.9,69.5,29.62,SSW,192,3.1,3.5,64,0.00,SCT,,0.01,418.0,WeatherDisplay:10.37,2013-06-29 18:59:00,
2013-06-29 15:04:00,82.9,72.1,29.62,South,190,6.1,8.1,70,0.00,SCT,,0.01,1146.0,WeatherDisplay:10.37,2013-06-29 19:04:00,
2013-06-29 15:09:00,83.5,70.5,29.62,SSW,194,4.8,6.9,65,0.00,SCT,,0.01,431.0,WeatherDisplay:10.37,2013-06-29 19:09:00,
2013-06-29 15:14:00,82.6,70.5,29.62,SSW,195,5.8,10.0,67,0.00,SCT,,0.01,359.0,WeatherDisplay:10.37,2013-06-29 19:14:00,
2013-06-29 15:19:00,82.5,72.1,29.62,SSE,151,3.3,4.6,71,0.00,BKN,SCT,0.01,499.0,WeatherDisplay:10.37,2013-06-29 19:19:00,
2013-06-29 15:24:00,82.8,70.7,29.62,South,186,5.9,10.4,67,0.00,BKN,SCT,0.01,366.0,WeatherDisplay:10.37,2013-06-29 19:24:00,
2013-06-29 15:29:00,82.4,71.2,29.62,SSW,199,5.6,6.9,69,0.00,BKN,SCT,0.01,381.0,WeatherDisplay:10.37,2013-06-29 19:29:00,
2013-06-29 15:34:00,83.3,70.8,29.62,SSW,195,5.8,9.2,66,0.00,BKN,SCT,0.01,381.0,WeatherDisplay:10.37,2013-06-29 19:34:00,
2013-06-29 15:39:00,83.0,70.5,29.62,SW,214,4.8,7.0,66,0.00,BKN,SCT,0.01,517.0,WeatherDisplay:10.37,2013-06-29 19:39:00,
2013-06-29 15:44:00,83.2,70.2,29.62,South,174,2.6,3.5,65,0.00,SCT,,0.01,977.0,WeatherDisplay:10.37,2013-06-29 19:44:00,
2013-06-29 15:49:00,83.7,69.8,29.62,SSE,168,2.3,3.5,63,0.00,FEW,SCT,0.01,842.0,WeatherDisplay:10.37,2013-06-29 19:49:00,
2013-06-29 15:54:00,82.9,70.4,29.62,SE,139,2.5,4.6,66,0.00,FEW,SCT,0.01,464.0,WeatherDisplay:10.37,2013-06-29 19:54:00,
2013-06-29 15:59:00,83.3,71.6,29.62,SSW,192,2.0,3.5,68,0.00,SCT,,0.01,724.0,WeatherDisplay:10.37,2013-06-29 19:59:00,
2013-06-29 16:04:00,83.5,70.5,29.62,SSW,212,4.4,5.8,65,0.00,SCT,,0.01,696.0,WeatherDisplay:10.37,2013-06-29 20:04:00,
2013-06-29 16:09:00,83.6,72.3,29.62,South,170,5.1,9.2,69,0.00,FEW,SCT,0.01,677.0,WeatherDisplay:10.37,2013-06-29 20:09:00,
2013-06-29 16:14:00,83.7,71.6,29.62,South,179,3.1,8.1,67,0.00,FEW,SCT,0.01,691.0,WeatherDisplay:10.37,2013-06-29 20:14:00,
2013-06-29 16:19:00,83.8,71.2,29.62,South,178,5.9,9.2,66,0.00,FEW,SCT,0.01,664.0,WeatherDisplay:10.37,2013-06-29 20:19:00,
2013-06-29 16:24:00,83.9,73.1,29.62,SSW,208,1.9,4.0,70,0.00,FEW,SCT,0.01,434.0,WeatherDisplay:10.37,2013-06-29 20:24:00,
2013-06-29 16:29:00,84.1,72.4,29.62,South,188,6.5,10.4,68,0.00,FEW,SCT,0.01,640.0,WeatherDisplay:10.37,2013-06-29 20:29:00,
2013-06-29 16:34:00,84.5,73.2,29.62,SW,223,7.5,11.5,69,0.00,FEW,SCT,0.01,626.0,WeatherDisplay:10.37,2013-06-29 20:34:00,
2013-06-29 16:39:00,84.5,71.9,29.62,SW,216,3.8,6.0,66,0.00,FEW,SCT,0.01,613.0,WeatherDisplay:10.37,2013-06-29 20:39:00,
2013-06-29 16:44:00,84.1,71.1,29.62,SW,223,4.2,6.9,65,0.00,FEW,SCT,0.01,603.0,WeatherDisplay:10.37,2013-06-29 20:44:00,
2013-06-29 16:49:00,84.3,72.6,29.62,SE,141,3.9,8.0,68,0.00,FEW,SCT,0.01,585.0,WeatherDisplay:10.37,2013-06-29 20:49:00,
2013-06-29 16:54:00,84.6,73.7,29.62,South,191,4.9,6.9,70,0.00,FEW,SCT,0.01,571.0,WeatherDisplay:10.37,2013-06-29 20:54:00,
2013-06-29 16:59:00,84.5,73.6,29.62,SW,214,6.1,9.2,70,0.00,FEW,SCT,0.01,563.0,WeatherDisplay:10.37,2013-06-29 20:59:00,
2013-06-29 17:04:00,84.5,72.8,29.62,South,179,8.8,11.5,68,0.00,FEW,SCT,0.01,547.0,WeatherDisplay:10.37,2013-06-29 21:04:00,
2013-06-29 17:09:00,84.7,72.5,29.62,South,191,4.8,6.9,67,0.00,CLR,SCT,0.01,533.0,WeatherDisplay:10.37,2013-06-29 21:09:00,
2013-06-29 17:14:00,84.5,72.3,29.62,SSW,209,6.2,11.5,67,0.00,FEW,SCT,0.01,520.0,WeatherDisplay:10.37,2013-06-29 21:14:00,
2013-06-29 17:19:00,84.3,71.2,29.62,SSW,207,6.9,11.0,65,0.00,CLR,SCT,0.01,506.0,WeatherDisplay:10.37,2013-06-29 21:19:00,
2013-06-29 17:24:00,84.2,73.3,29.62,SSW,212,3.2,5.8,70,0.00,CLR,SCT,0.01,492.0,WeatherDisplay:10.37,2013-06-29 21:24:00,
2013-06-29 17:29:00,84.0,71.9,29.62,SSW,200,7.6,10.4,67,0.00,CLR,SCT,0.01,475.0,WeatherDisplay:10.37,2013-06-29 21:29:00,
2013-06-29 17:34:00,84.1,72.8,29.62,SSW,210,5.3,9.2,69,0.00,CLR,SCT,0.01,457.0,WeatherDisplay:10.37,2013-06-29 21:34:00,
2013-06-29 17:39:00,84.4,72.7,29.62,SW,217,4.6,6.0,68,0.00,FEW,SCT,0.01,445.0,WeatherDisplay:10.37,2013-06-29 21:39:00,
2013-06-29 17:44:00,84.5,73.2,29.61,SSE,164,6.0,9.2,69,0.00,FEW,SCT,0.01,431.0,WeatherDisplay:10.37,2013-06-29 21:44:00,
2013-06-29 17:49:00,84.6,72.9,29.61,SSW,201,2.8,5.0,68,0.00,FEW,SCT,0.01,413.0,WeatherDisplay:10.37,2013-06-29 21:49:00,
2013-06-29 17:54:00,84.2,72.5,29.60,SSW,198,6.8,10.4,68,0.00,FEW,SCT,0.01,401.0,WeatherDisplay:10.37,2013-06-29 21:54:00,
2013-06-29 17:59:00,84.4,73.5,29.60,South,174,6.0,8.1,70,0.00,CLR,SCT,0.01,385.0,WeatherDisplay:10.37,2013-06-29 21:59:00,
2013-06-29 18:04:00,84.3,72.6,29.60,South,186,6.3,6.9,68,0.00,FEW,SCT,0.01,367.0,WeatherDisplay:10.37,2013-06-29 22:04:00,
2013-06-29 18:09:00,84.1,72.8,29.60,SSW,207,6.3,10.4,69,0.00,FEW,SCT,0.01,352.0,WeatherDisplay:10.37,2013-06-29 22:09:00,
2013-06-29 18:14:00,84.1,72.8,29.60,South,181,4.7,6.9,69,0.00,FEW,SCT,0.01,339.0,WeatherDisplay:10.37,2013-06-29 22:14:00,
2013-06-29 18:19:00,84.2,74.6,29.60,SSW,212,7.0,9.0,73,0.00,FEW,SCT,0.01,325.0,WeatherDisplay:10.37,2013-06-29 22:19:00,
2013-06-29 18:24:00,84.0,73.2,29.60,South,176,5.8,11.5,70,0.00,FEW,SCT,0.01,309.0,WeatherDisplay:10.37,2013-06-29 22:24:00,
2013-06-29 18:29:00,83.8,74.2,29.61,SSW,195,5.9,10.4,73,0.00,FEW,SCT,0.01,192.0,WeatherDisplay:10.37,2013-06-29 22:29:00,
2013-06-29 18:34:00,83.2,72.8,29.61,South,186,6.5,10.4,71,0.00,FEW,SCT,0.01,283.0,WeatherDisplay:10.37,2013-06-29 22:34:00,
2013-06-29 18:39:00,83.0,73.4,29.61,South,191,6.1,6.9,73,0.00,FEW,SCT,0.01,179.0,WeatherDisplay:10.37,2013-06-29 22:39:00,
2013-06-29 18:44:00,82.5,73.0,29.61,SSW,195,9.0,12.7,73,0.00,SCT,,0.01,69.0,WeatherDisplay:10.37,2013-06-29 22:44:00,
2013-06-29 18:49:00,82.6,73.1,29.62,SE,142,9.1,10.4,73,0.00,BKN,SCT,0.01,104.0,WeatherDisplay:10.37,2013-06-29 22:49:00,
2013-06-29 18:54:00,82.9,75.3,29.62,South,173,6.1,11.5,78,0.00,BKN,SCT,0.01,79.0,WeatherDisplay:10.37,2013-06-29 22:54:00,
2013-06-29 18:59:00,82.7,75.1,29.63,South,187,5.7,6.9,78,0.00,BKN,SCT,0.01,60.0,WeatherDisplay:10.37,2013-06-29 22:59:00,
2013-06-29 19:04:00,82.4,74.8,29.63,South,181,10.9,13.8,78,0.00,BKN,SCT,0.01,56.0,WeatherDisplay:10.37,2013-06-29 23:04:00,
2013-06-29 19:09:00,82.3,75.5,29.63,SSW,197,4.8,6.9,80,0.00,BKN,SCT,0.01,62.0,WeatherDisplay:10.37,2013-06-29 23:09:00,
2013-06-29 19:14:00,82.3,75.5,29.64,South,177,7.7,10.4,80,0.00,BKN,SCT,0.01,37.0,WeatherDisplay:10.37,2013-06-29 23:14:00,
2013-06-29 19:19:00,82.1,75.7,29.64,SE,132,4.6,4.6,81,0.00,BKN,SCT,0.01,72.0,WeatherDisplay:10.37,2013-06-29 23:19:00,
2013-06-29 19:24:00,82.2,76.2,29.64,SSE,156,6.9,10.4,82,0.00,BKN,SCT,0.01,83.0,WeatherDisplay:10.37,2013-06-29 23:24:00,
2013-06-29 19:29:00,82.0,76.0,29.64,South,169,5.0,7.0,82,0.00,BKN,SCT,0.01,67.0,WeatherDisplay:10.37,2013-06-29 23:29:00,
2013-06-29 19:34:00,81.8,75.8,29.65,South,174,5.6,11.5,82,0.00,BKN,SCT,0.01,58.0,WeatherDisplay:10.37,2013-06-29 23:34:00,
2013-06-29 19:39:00,81.7,75.7,29.65,SE,140,7.4,7.4,82,0.00,BKN,SCT,0.01,60.0,WeatherDisplay:10.37,2013-06-29 23:39:00,
2013-06-29 19:44:00,81.6,75.9,29.65,SSE,168,7.5,10.4,83,0.00,BKN,SCT,0.01,44.0,WeatherDisplay:10.37,2013-06-29 23:44:00,
2013-06-29 19:49:00,81.6,75.6,29.65,SSE,155,5.7,6.9,82,0.00,BKN,SCT,0.01,37.0,WeatherDisplay:10.37,2013-06-29 23:49:00,
2013-06-29 19:54:00,81.5,75.5,29.65,South,178,2.2,4.6,82,0.00,BKN,SCT,0.01,32.0,WeatherDisplay:10.37,2013-06-29 23:54:00,
2013-06-29 19:59:00,81.4,75.0,29.65,South,176,4.3,9.2,81,0.00,BKN,SCT,0.01,30.0,WeatherDisplay:10.37,2013-06-29 23:59:00,
2013-06-29 20:04:00,81.3,74.9,29.65,SSE,159,4.6,9.2,81,0.00,BKN,SCT,0.01,35.0,WeatherDisplay:10.37,2013-06-30 00:04:00,
2013-06-29 20:09:00,81.3,74.9,29.65,SSE,166,3.0,3.5,81,0.00,BKN,SCT,0.01,25.0,WeatherDisplay:10.37,2013-06-30 00:09:00,
2013-06-29 20:14:00,81.1,74.7,29.65,SE,127,7.6,11.5,81,0.00,BKN,SCT,0.01,14.0,WeatherDisplay:10.37,2013-06-30 00:14:00,
2013-06-29 20:19:00,81.1,74.7,29.65,SSE,149,7.8,13.0,81,0.00,BKN,SCT,0.01,11.0,WeatherDisplay:10.37,2013-06-30 00:19:00,
2013-06-29 20:24:00,80.9,74.5,29.66,South,183,9.8,15.0,81,0.00,BKN,SCT,0.01,7.0,WeatherDisplay:10.37,2013-06-30 00:24:00,
2013-06-29 20:29:00,80.7,74.7,29.66,SSE,162,10.7,12.7,82,0.00,BKN,SCT,0.01,5.0,WeatherDisplay:10.37,2013-06-30 00:29:00,
2013-06-29 20:34:00,80.6,75.0,29.66,SE,143,8.2,12.7,83,0.00,,SCT,0.01,0.0,WeatherDisplay:10.37,2013-06-30 00:34:00,
2013-06-29 20:39:00,80.5,75.2,29.66,SSE,149,5.5,9.2,84,0.00,,SCT,0.01,0.0,WeatherDisplay:10.37,2013-06-30 00:39:00,
2013-06-29 20:44:00,80.2,74.9,29.66,South,183,7.4,12.7,84,0.00,,SCT,0.01,0.0,WeatherDisplay:10.37,2013-06-30 00:44:00,
2013-06-29 20:49:00,80.2,75.3,29.66,South,172,5.9,11.5,85,0.00,,SCT,0.01,0.0,WeatherDisplay:10.37,2013-06-30 00:49:00,
2013-06-29 20:54:00,80.2,75.6,29.66,SSW,193,6.5,11.5,86,0.00,,SCT,0.01,0.0,WeatherDisplay:10.37,2013-06-30 00:54:00,
2013-06-29 20:59:00,80.2,75.6,29.66,South,170,6.0,9.2,86,0.00,,SCT,0.01,0.0,WeatherDisplay:10.37,2013-06-30 00:59:00,
2013-06-29 21:04:00,80.1,75.5,29.66,South,176,5.7,11.5,86,0.00,,SCT,0.01,0.0,WeatherDisplay:10.37,2013-06-30 01:04:00,
2013-06-29 21:09:00,79.9,75.7,29.67,SSE,158,5.7,11.0,87,0.00,,SCT,0.01,0.0,WeatherDisplay:10.37,2013-06-30 01:09:00,
2013-06-29 21:14:00,79.9,75.7,29.67,South,175,5.2,6.9,87,0.00,,SCT,0.01,0.0,WeatherDisplay:10.37,2013-06-30 01:14:00,
2013-06-29 21:19:00,79.7,75.1,29.67,South,187,3.7,6.9,86,0.00,,SCT,0.01,0.0,WeatherDisplay:10.37,2013-06-30 01:19:00,
2013-06-29 21:24:00,79.8,75.6,29.67,South,176,4.8,12.7,87,0.00,,SCT,0.01,0.0,WeatherDisplay:10.37,2013-06-30 01:24:00,
2013-06-29 21:29:00,79.8,75.6,29.67,South,170,4.4,5.8,87,0.00,,SCT,0.01,0.0,WeatherDisplay:10.37,2013-06-30 01:29:00,
2013-06-29 21:34:00,79.7,75.5,29.67,South,174,3.3,5.8,87,0.00,,SCT,0.01,0.0,WeatherDisplay:10.37,2013-06-30 01:34:00,
2013-06-29 21:39:00,79.5,75.3,29.67,SSE,160,1.9,4.6,87,0.00,,SCT,0.01,0.0,WeatherDisplay:10.37,2013-06-30 01:39:00,
2013-06-29 21:44:00,79.5,75.6,29.67,South,182,2.7,5.8,88,0.00,,SCT,0.01,0.0,WeatherDisplay:10.37,2013-06-30 01:44:00,
2013-06-29 21:49:00,79.5,75.6,29.68,South,185,3.7,9.0,88,0.00,,SCT,0.01,0.0,WeatherDisplay:10.37,2013-06-30 01:49:00,
2013-06-29 21:54:00,79.4,75.5,29.68,SSE,168,4.0,6.0,88,0.00,,SCT,0.01,0.0,WeatherDisplay:10.37,2013-06-30 01:54:00,
2013-06-29 21:59:00,79.5,76.0,29.68,South,176,5.7,11.5,89,0.00,,SCT,0.01,0.0,WeatherDisplay:10.37,2013-06-30 01:59:00,
2013-06-29 22:04:00,79.5,75.6,29.68,South,169,5.1,10.4,88,0.00,CLR,SCT,0.01,0.0,WeatherDisplay:10.37,2013-06-30 02:04:00,
2013-06-29 22:09:00,79.5,75.6,29.68,SSE,158,6.2,11.5,88,0.00,CLR,SCT,0.01,0.0,WeatherDisplay:10.37,2013-06-30 02:09:00,
2013-06-29 22:14:00,79.6,76.1,29.68,SE,142,6.2,6.2,89,0.00,CLR,SCT,0.01,0.0,WeatherDisplay:10.37,2013-06-30 02:14:00,
2013-06-29 22:19:00,79.6,75.7,29.68,SSE,150,5.5,5.8,88,0.00,CLR,SCT,0.01,0.0,WeatherDisplay:10.37,2013-06-30 02:19:00,
2013-06-29 22:24:00,79.5,76.0,29.68,South,191,5.1,9.2,89,0.00,CLR,SCT,0.01,0.0,WeatherDisplay:10.37,2013-06-30 02:24:00,
2013-06-29 22:29:00,79.6,76.1,29.68,SSE,160,7.8,9.2,89,0.00,CLR,SCT,0.01,0.0,WeatherDisplay:10.37,2013-06-30 02:29:00,
2013-06-29 22:35:00,79.6,76.1,29.68,SSW,198,4.9,10.0,89,0.00,CLR,SCT,0.01,0.0,WeatherDisplay:10.37,2013-06-30 02:35:00,
2013-06-29 22:40:00,79.5,76.0,29.68,South,185,6.5,10.4,89,0.00,CLR,SCT,0.01,0.0,WeatherDisplay:10.37,2013-06-30 02:40:00,
2013-06-29 22:45:00,79.4,76.2,29.69,South,176,5.0,9.0,90,0.00,CLR,SCT,0.01,0.0,WeatherDisplay:10.37,2013-06-30 02:45:00,
2013-06-29 22:50:00,79.2,75.7,29.68,South,179,7.7,13.0,89,0.00,CLR,SCT,0.01,0.0,WeatherDisplay:10.37,2013-06-30 02:50:00,
2013-06-29 22:55:00,79.1,75.9,29.69,SSW,197,9.4,12.0,90,0.00,CLR,SCT,0.01,0.0,WeatherDisplay:10.37,2013-06-30 02:55:00,
2013-06-29 23:00:00,79.2,76.0,29.69,South,189,8.7,15.0,90,0.00,CLR,SCT,0.01,0.0,WeatherDisplay:10.37,2013-06-30 03:00:00,
2013-06-29 23:05:00,79.2,76.0,29.69,SSW,204,9.0,11.5,90,0.00,CLR,SCT,0.01,0.0,WeatherDisplay:10.37,2013-06-30 03:05:00,
2013-06-29 23:10:00,79.3,76.1,29.69,SSW,196,6.9,10.0,90,0.00,CLR,SCT,0.01,0.0,WeatherDisplay:10.37,2013-06-30 03:10:00,
2013-06-29 23:15:00,79.2,76.0,29.69,South,175,5.7,9.2,90,0.00,CLR,SCT,0.01,0.0,WeatherDisplay:10.37,2013-06-30 03:15:00,
2013-06-29 23:20:00,79.2,76.0,29.69,SSW,206,8.4,11.5,90,0.00,CLR,SCT,0.01,0.0,WeatherDisplay:10.37,2013-06-30 03:20:00,
2013-06-29 23:25:00,79.2,76.0,29.69,SSE,151,9.0,10.4,90,0.00,CLR,SCT,0.01,0.0,WeatherDisplay:10.37,2013-06-30 03:25:00,
2013-06-29 23:30:00,79.2,76.0,29.69,SSW,193,9.1,11.5,90,0.00,CLR,SCT,0.01,0.0,WeatherDisplay:10.37,2013-06-30 03:30:00,
2013-06-29 23:35:00,79.3,76.1,29.69,SSW,194,7.4,11.5,90,0.00,CLR,SCT,0.01,0.0,WeatherDisplay:10.37,2013-06-30 03:35:00,
2013-06-29 23:40:00,79.1,75.9,29.69,SSW,195,9.1,11.5,90,0.00,CLR,SCT,0.01,0.0,WeatherDisplay:10.37,2013-06-30 03:40:00,
2013-06-29 23:45:00,78.7,75.2,29.69,SSW,203,10.7,14.0,89,0.00,CLR,SCT,0.01,0.0,WeatherDisplay:10.37,2013-06-30 03:45:00,
2013-06-29 23:50:00,78.6,75.4,29.69,SSW,204,9.2,13.8,90,0.00,CLR,SCT,0.01,0.0,WeatherDisplay:10.37,2013-06-30 03:50:00,
2013-06-29 23:55:00,78.2,75.0,29.70,SSW,203,10.0,11.5,90,0.00,CLR,SCT,0.01,0.0,WeatherDisplay:10.37,2013-06-30 03:55:00,